Time;durP1;ratioP1;P1;durP2;ratioP2;P2;SDS_P1;SDS_P2;PMS_P1;PMS_P2;Temp;Humidity;BMP_temperature;BMP_pressure;BME280_temperature;BME280_humidity;BME280_pressure;Samples;Min_cycle;Max_cycle;Signal;HPM_P1;HPM_P2
2022/11/22 00:00:00;;;;;;;2.92;1.88;;;;;;;6.10;nan;98470.44;5021526;28;20034;-84
2022/11/22 00:02:25;;;;;;;3.22;1.70;;;;;;;6.13;nan;98469.28;5030690;28;20776;-83
2022/11/22 00:04:51;;;;;;;4.15;1.60;;;;;;;6.15;nan;98467.31;5016213;28;20095;-85
2022/11/22 00:07:16;;;;;;;5.40;1.90;;;;;;;6.15;nan;98465.50;5013019;28;20077;-84
2022/11/22 00:09:41;;;;;;;2.63;1.70;;;;;;;6.20;nan;98461.50;5035991;28;20068;-85
2022/11/22 00:12:07;;;;;;;4.35;1.98;;;;;;;6.23;nan;98451.50;5016166;28;20742;-85
2022/11/22 00:14:32;;;;;;;4.30;1.67;;;;;;;6.24;nan;98452.28;5022658;28;20421;-86
2022/11/22 00:16:57;;;;;;;5.22;1.80;;;;;;;6.31;nan;98447.97;5018304;28;20092;-85
2022/11/22 00:19:23;;;;;;;4.00;1.65;;;;;;;6.38;nan;98451.53;5018063;28;20128;-86
2022/11/22 00:21:48;;;;;;;3.92;1.63;;;;;;;6.49;nan;98452.94;5036194;28;20087;-84
2022/11/22 00:24:13;;;;;;;3.55;1.60;;;;;;;6.53;nan;98441.91;5016818;28;20045;-85
2022/11/22 00:26:39;;;;;;;2.35;1.50;;;;;;;6.51;nan;98437.84;5032901;28;20121;-85
2022/11/22 00:29:04;;;;;;;4.28;1.70;;;;;;;6.47;nan;98436.53;5017661;28;20040;-87
2022/11/22 00:31:30;;;;;;;4.13;1.80;;;;;;;6.44;nan;98436.91;5023071;28;20032;-85
2022/11/22 00:33:56;;;;;;;4.10;1.70;;;;;;;6.50;nan;98431.75;5035028;28;20041;-85
2022/11/22 00:36:21;;;;;;;5.03;1.90;;;;;;;6.50;nan;98431.75;5028641;28;20095;-85
2022/11/22 00:38:47;;;;;;;3.28;1.60;;;;;;;6.55;nan;98434.69;5024131;28;20040;-85
2022/11/22 00:41:12;;;;;;;3.10;1.58;;;;;;;6.62;nan;98431.31;5020627;28;20045;-84
2022/11/22 00:43:37;;;;;;;2.97;1.30;;;;;;;6.65;nan;98444.94;5016269;28;20569;-85
2022/11/22 00:46:03;;;;;;;4.68;1.58;;;;;;;6.72;nan;98445.00;5017063;28;20128;-85
2022/11/22 00:48:28;;;;;;;2.65;1.40;;;;;;;6.74;nan;98443.84;5032589;28;20101;-84
2022/11/22 00:50:54;;;;;;;2.78;1.40;;;;;;;6.79;nan;98433.63;5037338;28;20029;-85
2022/11/22 00:53:21;;;;;;;2.42;1.30;;;;;;;6.83;nan;98431.44;5024909;28;20037;-85
2022/11/22 00:55:46;;;;;;;3.58;1.48;;;;;;;6.88;nan;98434.34;5026464;28;20038;-84
2022/11/22 00:58:12;;;;;;;2.78;1.25;;;;;;;6.90;nan;98442.06;5017900;28;20121;-85
2022/11/22 01:00:37;;;;;;;4.28;1.42;;;;;;;6.93;nan;98433.81;5025026;28;20124;-83
2022/11/22 01:03:02;;;;;;;4.43;1.30;;;;;;;6.95;nan;98437.91;5006276;28;20143;-83
2022/11/22 01:05:27;;;;;;;3.55;1.85;;;;;;;6.98;nan;98449.84;5003486;28;20056;-84
2022/11/22 01:07:53;;;;;;;3.53;1.70;;;;;;;6.98;nan;98457.72;5019178;28;20392;-84
2022/11/22 01:10:18;;;;;;;2.72;1.50;;;;;;;7.02;nan;98474.78;5009973;28;20050;-83
2022/11/22 01:12:44;;;;;;;2.80;1.30;;;;;;;6.98;nan;98474.34;5030588;28;20045;-83
2022/11/22 01:15:10;;;;;;;4.90;1.55;;;;;;;6.99;nan;98478.59;5030833;28;20033;-84
2022/11/22 01:17:35;;;;;;;3.53;1.80;;;;;;;6.96;nan;98480.75;5032396;28;20449;-84
2022/11/22 01:20:01;;;;;;;5.28;1.85;;;;;;;6.97;nan;98488.47;5028525;28;20044;-84
2022/11/22 01:22:27;;;;;;;4.35;1.67;;;;;;;6.92;nan;98485.56;5019076;28;20041;-83
2022/11/22 01:24:52;;;;;;;3.50;1.80;;;;;;;6.84;nan;98487.44;5028253;28;20566;-85
2022/11/22 01:27:17;;;;;;;4.07;1.70;;;;;;;6.81;nan;98491.22;5042046;28;20048;-85
2022/11/22 01:29:43;;;;;;;4.03;1.73;;;;;;;6.78;nan;98478.47;5035214;28;20120;-85
2022/11/22 01:32:08;;;;;;;4.53;1.60;;;;;;;6.75;nan;98484.88;5033637;28;20060;-85
2022/11/22 01:34:33;;;;;;;3.25;1.80;;;;;;;6.77;nan;98487.34;5016860;28;20034;-86
2022/11/22 01:36:58;;;;;;;3.83;1.65;;;;;;;6.78;nan;98491.59;5032357;28;20087;-86
2022/11/22 01:39:24;;;;;;;4.43;1.70;;;;;;;6.79;nan;98503.72;5036737;28;20037;-84
2022/11/22 01:41:49;;;;;;;4.57;1.80;;;;;;;6.77;nan;98501.28;5029907;28;20088;-83
2022/11/22 01:44:22;;;;;;;4.22;1.90;;;;;;;6.77;nan;98501.28;5021859;28;20026;-84
2022/11/22 01:46:52;;;;;;;5.15;2.00;;;;;;;6.76;nan;98499.63;5021812;28;20064;-83
2022/11/22 01:49:40;;;;;;;4.63;1.95;;;;;;;6.76;nan;98488.31;5033571;28;20033;-84
2022/11/22 01:52:18;;;;;;;6.80;2.17;;;;;;;6.77;nan;98503.09;5027143;28;20057;-85
2022/11/22 01:54:49;;;;;;;4.68;2.20;;;;;;;6.80;nan;98502.75;5010465;28;20034;-84
2022/11/22 01:57:19;;;;;;;3.83;1.88;;;;;;;6.77;nan;98501.28;5013064;28;20057;-84
2022/11/22 01:59:54;;;;;;;6.93;2.55;;;;;;;6.77;nan;98516.25;5025808;28;20457;-83
2022/11/22 02:02:20;;;;;;;5.50;2.53;;;;;;;6.77;nan;98503.91;5016404;28;20029;-84
2022/11/22 02:04:48;;;;;;;4.47;2.25;;;;;;;6.78;nan;98507.34;5026476;28;20040;-83
2022/11/22 02:07:21;;;;;;;4.55;2.42;;;;;;;6.79;nan;98514.22;5023496;28;20033;-84
2022/11/22 02:09:49;;;;;;;6.10;2.70;;;;;;;6.81;nan;98514.88;5003535;28;20452;-84
2022/11/22 02:12:16;;;;;;;5.32;2.25;;;;;;;6.80;nan;98521.94;5015301;28;20495;-83
2022/11/22 02:14:42;;;;;;;3.78;2.50;;;;;;;6.80;nan;98521.13;5035801;28;20115;-84
2022/11/22 02:17:07;;;;;;;5.60;2.90;;;;;;;6.84;nan;98521.56;5013117;28;20034;-85
2022/11/22 02:19:47;;;;;;;6.53;3.00;;;;;;;6.88;nan;98522.88;5037645;28;20045;-84
2022/11/22 02:22:15;;;;;;;4.78;2.42;;;;;;;6.91;nan;98520.72;5030758;28;20108;-84
2022/11/22 02:24:47;;;;;;;4.30;2.63;;;;;;;6.94;nan;98522.16;5036463;28;20040;-83
2022/11/22 02:27:13;;;;;;;6.07;2.40;;;;;;;6.93;nan;98518.69;5029185;28;20513;-83
2022/11/22 02:29:39;;;;;;;6.05;3.05;;;;;;;6.98;nan;98526.91;5025358;28;20060;-84
2022/11/22 02:32:04;;;;;;;4.40;2.80;;;;;;;6.99;nan;98531.16;5008452;28;20030;-84
2022/11/22 02:34:46;;;;;;;4.55;2.80;;;;;;;7.00;nan;98524.88;5028394;28;20038;-82
2022/11/22 02:37:14;;;;;;;5.18;2.80;;;;;;;7.00;nan;98531.94;5031235;28;20033;-83
2022/11/22 02:39:42;;;;;;;8.15;3.22;;;;;;;6.99;nan;98525.88;5025656;28;20041;-83
2022/11/22 02:42:07;;;;;;;7.15;3.28;;;;;;;7.00;nan;98538.00;5022978;28;20060;-84
2022/11/22 02:44:33;;;;;;;7.50;3.03;;;;;;;7.00;nan;98540.66;5003326;28;20116;-84
2022/11/22 02:46:58;;;;;;;8.30;3.83;;;;;;;7.04;nan;98546.38;5027544;28;20033;-85
2022/11/22 02:49:24;;;;;;;8.70;3.38;;;;;;;7.07;nan;98543.38;5015317;28;20113;-83
2022/11/22 02:51:51;;;;;;;6.43;3.03;;;;;;;7.08;nan;98554.72;5021532;28;20033;-84
2022/11/22 02:54:17;;;;;;;6.15;3.13;;;;;;;7.10;nan;98553.53;5013289;28;20037;-83
2022/11/22 02:56:42;;;;;;;9.43;3.13;;;;;;;7.12;nan;98546.28;5007780;28;20183;-84
2022/11/22 02:59:08;;;;;;;7.13;3.20;;;;;;;7.11;nan;98547.31;5005532;28;20081;-83
2022/11/22 03:01:33;;;;;;;6.38;3.10;;;;;;;7.12;nan;98546.28;5029819;28;20041;-84
2022/11/22 03:03:58;;;;;;;7.35;3.92;;;;;;;7.12;nan;98546.28;5020434;28;20033;-85
2022/11/22 03:06:24;;;;;;;4.75;2.85;;;;;;;7.12;nan;98548.13;5009641;28;20044;-85
2022/11/22 03:08:49;;;;;;;7.45;3.28;;;;;;;7.12;nan;98548.13;5035000;28;20036;-85
2022/11/22 03:11:15;;;;;;;8.70;3.30;;;;;;;7.09;nan;98544.03;5041401;28;20065;-86
2022/11/22 03:13:40;;;;;;;7.63;3.00;;;;;;;7.13;nan;98547.13;5033557;28;20052;-85
2022/11/22 03:16:07;;;;;;;7.65;3.17;;;;;;;7.14;nan;98554.00;5007358;28;20056;-86
2022/11/22 03:18:33;;;;;;;4.55;2.40;;;;;;;7.14;nan;98560.06;5010618;28;20084;-84
2022/11/22 03:21:03;;;;;;;4.93;2.70;;;;;;;7.15;nan;98566.16;5033829;28;20036;-85
2022/11/22 03:23:28;;;;;;;7.22;2.85;;;;;;;7.13;nan;98558.47;5029557;28;20033;-84
2022/11/22 03:25:54;;;;;;;6.13;2.72;;;;;;;7.16;nan;98563.34;5022468;28;20056;-85
2022/11/22 03:28:19;;;;;;;8.75;2.92;;;;;;;7.18;nan;98569.25;5037752;28;20041;-85
2022/11/22 03:30:44;;;;;;;9.00;3.15;;;;;;;7.19;nan;98570.06;5043536;28;20049;-85
2022/11/22 03:33:10;;;;;;;6.45;2.53;;;;;;;7.19;nan;98573.50;5041751;28;20064;-84
2022/11/22 03:35:36;;;;;;;7.43;2.28;;;;;;;7.19;nan;98559.53;5019301;28;20053;-84
2022/11/22 03:38:02;;;;;;;6.65;2.47;;;;;;;7.19;nan;98567.44;5035206;28;20044;-84
2022/11/22 03:40:27;;;;;;;8.45;2.92;;;;;;;7.13;nan;98570.78;5031892;28;20507;-84
2022/11/22 03:42:53;;;;;;;6.95;2.40;;;;;;;7.13;nan;98568.97;5041955;28;20040;-84
2022/11/22 03:45:18;;;;;;;3.88;2.40;;;;;;;7.10;nan;98574.56;5019759;28;20041;-83
2022/11/22 03:47:43;;;;;;;6.22;2.60;;;;;;;7.06;nan;98569.88;5040196;28;20037;-86
2022/11/22 03:50:09;;;;;;;4.90;2.60;;;;;;;7.00;nan;98580.06;5026940;28;20043;-87
2022/11/22 03:52:34;;;;;;;6.75;2.63;;;;;;;6.98;nan;98579.44;5032132;28;20117;-85
2022/11/22 03:54:59;;;;;;;5.13;2.58;;;;;;;6.97;nan;98587.50;5032443;28;20209;-85
2022/11/22 03:57:24;;;;;;;6.05;2.63;;;;;;;6.92;nan;98582.78;5008171;28;20042;-86
2022/11/22 03:59:50;;;;;;;4.97;2.40;;;;;;;6.87;nan;98577.22;5020954;28;20526;-85
2022/11/22 04:02:15;;;;;;;7.45;2.50;;;;;;;6.82;nan;98587.44;5014104;28;20034;-85
2022/11/22 04:04:41;;;;;;;5.43;2.53;;;;;;;6.79;nan;98585.16;5035688;28;20041;-86
2022/11/22 04:07:06;;;;;;;7.78;2.90;;;;;;;6.76;nan;98588.13;5027042;28;20513;-83
2022/11/22 04:09:32;;;;;;;5.60;2.47;;;;;;;6.71;nan;98585.22;5017162;28;20372;-84
2022/11/22 04:11:57;;;;;;;6.00;2.60;;;;;;;6.66;nan;98583.13;5027284;28;20038;-85
2022/11/22 04:17:06;;;;;;;7.60;3.00;;;;;;;6.62;nan;98599.41;5035890;28;20068;-83
2022/11/22 04:19:31;;;;;;;5.93;2.72;;;;;;;6.62;nan;98607.28;5021256;28;20049;-87
2022/11/22 04:21:57;;;;;;;6.88;2.40;;;;;;;6.58;nan;98607.63;5017347;28;20034;-86
2022/11/22 04:27:07;;;;;;;6.13;2.90;;;;;;;6.57;nan;98603.34;5035697;28;20538;-84
2022/11/22 04:29:32;;;;;;;6.97;2.90;;;;;;;6.58;nan;98606.81;5046601;28;20029;-84
2022/11/22 04:34:41;;;;;;;7.32;2.67;;;;;;;6.63;nan;98616.81;5034587;28;20473;-85
2022/11/22 04:37:06;;;;;;;8.52;2.70;;;;;;;6.66;nan;98622.50;5016759;28;20045;-85
2022/11/22 04:39:32;;;;;;;10.15;2.90;;;;;;;6.74;nan;98629.53;5035457;28;20037;-83
2022/11/22 04:44:42;;;;;;;6.30;2.72;;;;;;;6.82;nan;98618.97;5028458;28;20040;-83
2022/11/22 04:47:09;;;;;;;8.45;2.90;;;;;;;6.87;nan;98618.44;5024020;28;20033;-85
2022/11/22 04:49:35;;;;;;;7.25;2.72;;;;;;;6.90;nan;98621.53;5027306;28;20105;-86
2022/11/22 04:54:44;;;;;;;9.77;2.72;;;;;;;6.87;nan;98615.81;5040839;28;20105;-86
2022/11/22 04:57:10;;;;;;;8.75;2.83;;;;;;;6.83;nan;98627.66;5017532;28;20092;-86
2022/11/22 04:59:35;;;;;;;9.75;2.58;;;;;;;6.81;nan;98623.38;5030595;28;20033;-84
2022/11/22 05:02:00;;;;;;;7.90;2.80;;;;;;;6.78;nan;98621.13;5031493;28;20083;-85
2022/11/22 05:04:26;;;;;;;9.90;3.00;;;;;;;6.74;nan;98617.19;5043589;28;20113;-85
2022/11/22 05:06:51;;;;;;;9.00;2.63;;;;;;;6.65;nan;98622.66;5036744;28;20030;-85
2022/11/22 05:09:16;;;;;;;6.75;2.20;;;;;;;6.58;nan;98619.94;5015826;28;20549;-84
2022/11/22 05:11:42;;;;;;;8.73;2.38;;;;;;;6.48;nan;98625.38;5030452;28;20538;-85
2022/11/22 05:14:09;;;;;;;10.95;2.35;;;;;;;6.42;nan;98631.34;5045507;28;20086;-84
2022/11/22 05:16:34;;;;;;;7.32;2.30;;;;;;;6.35;nan;98633.00;5039175;28;20057;-84
2022/11/22 05:19:00;;;;;;;8.05;2.15;;;;;;;6.26;nan;98623.53;5042201;28;20088;-85
2022/11/22 05:21:26;;;;;;;10.80;2.42;;;;;;;6.26;nan;98626.16;5019706;28;20022;-84
2022/11/22 05:23:54;;;;;;;10.27;2.60;;;;;;;6.19;nan;98625.22;5024977;28;20032;-84
2022/11/22 05:26:32;;;;;;;9.77;2.25;;;;;;;6.13;nan;98624.91;5017924;28;20051;-83
2022/11/22 05:28:58;;;;;;;11.73;2.95;;;;;;;6.08;nan;98636.91;5012137;28;20383;-83
2022/11/22 05:31:26;;;;;;;13.07;2.47;;;;;;;6.05;nan;98637.22;5014363;28;20038;-84
2022/11/22 05:33:53;;;;;;;9.48;2.83;;;;;;;6.04;nan;98644.28;5028854;28;20034;-83
2022/11/22 05:36:20;;;;;;;7.28;2.33;;;;;;;6.01;nan;98649.88;5012331;28;20045;-85
2022/11/22 05:38:46;;;;;;;8.73;2.58;;;;;;;6.04;nan;98661.84;5040570;28;20041;-83
2022/11/22 05:41:13;;;;;;;15.05;3.13;;;;;;;6.13;nan;98656.41;5024940;28;20020;-86
2022/11/22 05:43:39;;;;;;;11.55;2.80;;;;;;;6.20;nan;98653.06;4997463;28;20502;-84
2022/11/22 05:46:09;;;;;;;7.22;2.40;;;;;;;6.26;nan;98655.03;5009467;28;20102;-84
2022/11/22 05:48:37;;;;;;;8.50;2.28;;;;;;;6.28;nan;98658.31;5015021;28;20035;-85
2022/11/22 05:51:07;;;;;;;11.10;2.67;;;;;;;6.32;nan;98659.63;5041249;28;20040;-85
2022/11/22 05:53:33;;;;;;;9.57;2.92;;;;;;;6.32;nan;98667.50;5015847;28;20037;-84
2022/11/22 05:56:09;;;;;;;13.55;3.50;;;;;;;6.36;nan;98677.47;5039080;28;20119;-84
2022/11/22 05:58:35;;;;;;;11.05;3.13;;;;;;;6.42;nan;98683.84;5030009;28;20040;-85
2022/11/22 06:01:02;;;;;;;8.02;2.92;;;;;;;6.46;nan;98679.91;5013541;28;20037;-83
2022/11/22 06:03:28;;;;;;;10.98;2.72;;;;;;;6.47;nan;98678.91;5029976;28;20026;-84
2022/11/22 06:05:53;;;;;;;9.23;3.17;;;;;;;6.51;nan;98677.56;5008198;28;20032;-84
2022/11/22 06:08:18;;;;;;;9.70;3.03;;;;;;;6.52;nan;98681.81;5039212;28;20049;-84
2022/11/22 06:10:43;;;;;;;12.13;3.00;;;;;;;6.57;nan;98691.81;5016636;28;20097;-85
2022/11/22 06:13:09;;;;;;;8.82;2.35;;;;;;;6.56;nan;98680.50;5016685;28;20029;-84
2022/11/22 06:15:34;;;;;;;8.98;2.85;;;;;;;6.61;nan;98694.94;5042151;28;20026;-85
2022/11/22 06:18:00;;;;;;;8.20;2.47;;;;;;;6.64;nan;98707.72;5024891;28;20486;-88
2022/11/22 06:20:26;;;;;;;10.75;2.75;;;;;;;6.67;nan;98702.13;5011853;28;20119;-85
2022/11/22 06:22:51;;;;;;;11.52;2.42;;;;;;;6.69;nan;98700.94;5016645;28;20508;-84
2022/11/22 06:25:16;;;;;;;7.20;2.55;;;;;;;6.67;nan;98700.31;5036208;28;20036;-86
2022/11/22 06:27:42;;;;;;;7.38;2.35;;;;;;;6.67;nan;98702.94;5025937;28;20033;-84
2022/11/22 06:30:08;;;;;;;11.18;2.53;;;;;;;6.69;nan;98702.75;5017445;28;20080;-85
2022/11/22 06:32:34;;;;;;;9.27;2.45;;;;;;;6.68;nan;98714.28;5020421;28;20048;-86
2022/11/22 06:35:01;;;;;;;10.05;2.60;;;;;;;6.67;nan;98721.31;5033885;28;20026;-84
2022/11/22 06:37:26;;;;;;;11.82;2.63;;;;;;;6.65;nan;98712.81;5013104;28;20053;-84
2022/11/22 06:39:52;;;;;;;10.75;3.17;;;;;;;6.64;nan;98712.97;5030711;28;20033;-84
2022/11/22 06:42:17;;;;;;;9.65;2.50;;;;;;;6.56;nan;98722.53;5006481;28;20070;-84
2022/11/22 06:44:42;;;;;;;10.32;3.17;;;;;;;6.49;nan;98721.56;5025183;28;20049;-84
2022/11/22 06:47:09;;;;;;;10.50;2.92;;;;;;;6.40;nan;98730.44;5031219;28;20037;-85
2022/11/22 06:49:34;;;;;;;9.20;2.50;;;;;;;6.32;nan;98735.75;5014244;28;20120;-83
2022/11/22 06:52:00;;;;;;;9.85;2.63;;;;;;;6.28;nan;98743.13;5032747;28;20060;-83
2022/11/22 06:54:25;;;;;;;12.13;2.38;;;;;;;6.31;nan;98741.97;5031216;28;20089;-84
2022/11/22 06:56:50;;;;;;;11.55;2.72;;;;;;;6.34;nan;98742.47;5023968;28;20034;-84
2022/11/22 06:59:16;;;;;;;11.52;2.47;;;;;;;6.37;nan;98738.69;5027031;28;20037;-84
2022/11/22 07:01:41;;;;;;;7.90;2.53;;;;;;;6.43;nan;98750.28;5018746;28;20029;-83
2022/11/22 07:04:07;;;;;;;11.63;2.90;;;;;;;6.48;nan;98761.09;5028572;28;20038;-83
2022/11/22 07:06:35;;;;;;;10.13;2.33;;;;;;;6.51;nan;98758.97;5024399;28;20037;-84
2022/11/22 07:09:04;;;;;;;10.27;2.97;;;;;;;6.51;nan;98766.84;5032586;28;20036;-85
2022/11/22 07:11:30;;;;;;;9.98;2.67;;;;;;;6.55;nan;98768.16;5033672;28;20039;-85
2022/11/22 07:14:01;;;;;;;7.75;2.60;;;;;;;6.57;nan;98767.97;5030229;28;20084;-88
2022/11/22 07:16:26;;;;;;;11.90;2.77;;;;;;;6.58;nan;98767.00;5007351;28;20050;-85
2022/11/22 07:18:52;;;;;;;7.80;2.58;;;;;;;6.61;nan;98763.22;5027499;28;20034;-85
2022/11/22 07:21:20;;;;;;;9.70;2.50;;;;;;;6.61;nan;98771.91;5003694;28;20144;-84
2022/11/22 07:23:49;;;;;;;8.68;2.70;;;;;;;6.61;nan;98785.03;5019519;28;20073;-84
2022/11/22 07:26:16;;;;;;;8.55;2.95;;;;;;;6.59;nan;98781.75;5024685;28;20037;-84
2022/11/22 07:28:42;;;;;;;12.57;3.20;;;;;;;6.54;nan;98779.63;5018649;28;20025;-84
2022/11/22 07:31:09;;;;;;;9.80;3.53;;;;;;;6.53;nan;98777.16;5026722;28;20108;-84
2022/11/22 07:33:35;;;;;;;17.58;4.10;;;;;;;6.54;nan;98784.88;5019506;28;20026;-84
2022/11/22 07:36:05;;;;;;;11.07;3.58;;;;;;;6.54;nan;98790.13;5030349;28;20044;-87
2022/11/22 07:38:31;;;;;;;12.20;2.95;;;;;;;6.54;nan;98795.41;5015119;28;20046;-87
2022/11/22 07:40:56;;;;;;;8.45;3.00;;;;;;;6.55;nan;98807.56;5009778;28;20511;-87
2022/11/22 07:43:21;;;;;;;12.45;3.30;;;;;;;6.57;nan;98802.13;5030988;28;20133;-86
2022/11/22 07:45:47;;;;;;;10.10;3.25;;;;;;;6.58;nan;98807.22;5008002;28;20065;-86
2022/11/22 07:48:13;;;;;;;12.00;2.85;;;;;;;6.59;nan;98808.84;5009496;28;20037;-84
2022/11/22 07:50:40;;;;;;;9.10;2.72;;;;;;;6.64;nan;98818.03;5014601;28;20033;-86
2022/11/22 07:53:06;;;;;;;12.88;2.95;;;;;;;6.64;nan;98826.72;5017127;28;20088;-85
2022/11/22 07:55:31;;;;;;;9.57;2.95;;;;;;;6.70;nan;98820.00;5013884;28;20240;-85
2022/11/22 07:57:58;;;;;;;11.63;3.05;;;;;;;6.72;nan;98824.09;5026948;28;20033;-85
2022/11/22 08:00:24;;;;;;;10.90;2.65;;;;;;;6.75;nan;98822.94;5026546;28;20041;-85
2022/11/22 08:02:49;;;;;;;14.88;3.38;;;;;;;6.77;nan;98831.47;5007180;28;20120;-83
2022/11/22 08:05:15;;;;;;;11.30;2.92;;;;;;;6.79;nan;98840.81;5023782;28;20112;-83
2022/11/22 08:07:51;;;;;;;9.68;2.95;;;;;;;6.82;nan;98850.16;5013639;28;20041;-83
2022/11/22 08:10:17;;;;;;;14.05;3.03;;;;;;;6.85;nan;98843.75;5019438;28;20065;-82
2022/11/22 08:12:43;;;;;;;11.77;2.78;;;;;;;6.89;nan;98855.53;4959588;28;1113231;-83
2022/11/22 08:15:10;;;;;;;7.10;2.30;;;;;;;6.93;nan;98856.84;5018576;28;20045;-83
2022/11/22 08:17:35;;;;;;;7.15;2.20;;;;;;;6.98;nan;98863.25;5006129;28;20057;-86
2022/11/22 08:20:01;;;;;;;7.80;2.30;;;;;;;6.97;nan;98866.84;5004272;28;20074;-86
2022/11/22 08:22:26;;;;;;;10.27;2.60;;;;;;;6.99;nan;98857.00;5008572;28;20045;-84
2022/11/22 08:24:51;;;;;;;10.73;2.72;;;;;;;7.02;nan;98861.91;5033448;28;20036;-84
2022/11/22 08:27:17;;;;;;;9.05;2.55;;;;;;;7.06;nan;98858.94;5032293;28;20522;-85
2022/11/22 08:29:42;;;;;;;8.07;2.55;;;;;;;7.12;nan;98863.50;5024400;28;20124;-85
2022/11/22 08:32:08;;;;;;;7.60;2.47;;;;;;;7.16;nan;98867.44;5008878;28;20026;-85
2022/11/22 08:34:33;;;;;;;5.68;2.35;;;;;;;7.20;nan;98861.69;5027498;28;20034;-84
2022/11/22 08:36:59;;;;;;;7.32;2.38;;;;;;;7.26;nan;98859.34;5029722;28;20376;-84
2022/11/22 08:39:24;;;;;;;10.98;2.30;;;;;;;7.34;nan;98854.88;5030115;28;20327;-85
2022/11/22 08:41:50;;;;;;;7.47;1.85;;;;;;;7.39;nan;98854.38;5030858;28;20034;-87
2022/11/22 08:44:15;;;;;;;7.28;2.17;;;;;;;7.45;nan;98862.38;5013367;28;20510;-84
2022/11/22 08:46:41;;;;;;;9.07;2.10;;;;;;;7.44;nan;98854.66;5008627;28;20070;-84
2022/11/22 08:49:06;;;;;;;7.03;1.90;;;;;;;7.43;nan;98856.44;5015160;28;20029;-85
2022/11/22 08:51:32;;;;;;;9.60;2.20;;;;;;;7.53;nan;98850.16;5032872;28;20037;-85
2022/11/22 08:53:58;;;;;;;9.30;1.98;;;;;;;7.56;nan;98847.19;5020042;28;20025;-83
2022/11/22 08:56:24;;;;;;;8.38;2.08;;;;;;;7.62;nan;98852.56;5007629;28;20052;-84
2022/11/22 08:58:49;;;;;;;8.55;1.90;;;;;;;7.68;nan;98860.78;5011649;28;20038;-83
2022/11/22 09:01:16;;;;;;;10.80;2.22;;;;;;;7.72;nan;98860.22;5014122;28;20064;-85
2022/11/22 09:03:43;;;;;;;8.05;2.30;;;;;;;7.76;nan;98858.91;5008166;28;20053;-84
2022/11/22 09:06:14;;;;;;;8.82;2.05;;;;;;;7.76;nan;98858.91;5034091;28;20040;-85
2022/11/22 09:08:40;;;;;;;10.27;2.65;;;;;;;7.82;nan;98860.84;5030967;28;20053;-85
2022/11/22 09:11:11;;;;;;;9.02;2.28;;;;;;;7.84;nan;98855.38;5015836;28;20121;-87
2022/11/22 09:13:38;;;;;;;5.60;2.20;;;;;;;7.93;nan;98856.16;5031976;28;20487;-87
2022/11/22 09:16:10;;;;;;;7.72;2.13;;;;;;;7.93;nan;98856.97;5033839;28;20043;-86
2022/11/22 09:18:36;;;;;;;7.78;1.90;;;;;;;7.94;nan;98853.34;5029750;28;20120;-84
2022/11/22 09:21:09;;;;;;;8.10;1.58;;;;;;;7.98;nan;98851.19;5031795;28;20057;-85
2022/11/22 09:23:36;;;;;;;9.00;2.00;;;;;;;7.98;nan;98846.72;5021625;28;20099;-84
2022/11/22 09:26:07;;;;;;;8.32;2.10;;;;;;;7.98;nan;98849.34;5024116;28;20080;-85
2022/11/22 09:28:34;;;;;;;;;;;;;;;7.97;nan;98855.63;5025865;28;20065;-86
2022/11/22 09:31:08;;;;;;;6.57;1.80;;;;;;;8.02;nan;98858.53;5004708;28;19941;-84
2022/11/22 09:33:35;;;;;;;8.80;2.33;;;;;;;8.06;nan;98862.47;5030650;28;20087;-85
2022/11/22 09:36:04;;;;;;;9.18;1.92;;;;;;;8.15;nan;98862.41;5022531;28;20028;-86
2022/11/22 09:38:30;;;;;;;8.10;2.25;;;;;;;8.27;nan;98866.25;5017333;28;20034;-85
2022/11/22 09:40:57;;;;;;;8.70;2.40;;;;;;;8.43;nan;98866.13;5005282;28;20638;-85
2022/11/22 09:43:42;;;;;;;6.90;2.20;;;;;;;8.49;nan;98865.44;5035684;28;20036;-85
2022/11/22 09:46:20;;;;;;;6.57;2.00;;;;;;;8.53;nan;98851.88;5006643;28;20037;-84
2022/11/22 09:49:22;;;;;;;7.22;1.98;;;;;;;8.61;nan;98851.81;5019536;28;20030;-84
2022/11/22 09:52:12;;;;;;;9.35;2.20;;;;;;;8.71;nan;98847.09;5021248;28;20108;-85
2022/11/22 09:54:41;;;;;;;6.60;2.00;;;;;;;8.76;nan;98846.56;5002623;28;20499;-85
2022/11/22 09:57:15;;;;;;;9.50;2.00;;;;;;;8.79;nan;98844.38;5031398;28;20064;-86
2022/11/22 09:59:44;;;;;;;8.35;2.35;;;;;;;8.84;nan;98843.81;5020771;28;20503;-85
2022/11/22 10:02:21;;;;;;;8.88;1.80;;;;;;;8.84;nan;98846.44;5026919;28;20025;-84
2022/11/22 10:04:59;;;;;;;6.65;1.80;;;;;;;8.88;nan;98832.72;5042207;28;20030;-84
2022/11/22 10:07:32;;;;;;;5.15;1.60;;;;;;;8.94;nan;98844.38;5010524;28;20036;-86
2022/11/22 10:10:09;;;;;;;7.63;1.80;;;;;;;9.01;nan;98837.38;5018678;28;20439;-85
2022/11/22 10:12:49;;;;;;;4.57;1.58;;;;;;;9.04;nan;98839.63;4980361;28;20041;-84
2022/11/22 10:15:30;;;;;;;4.90;1.38;;;;;;;9.05;nan;98836.00;5028042;28;20037;-84
2022/11/22 10:17:59;;;;;;;;;;;;;;;9.05;nan;98837.81;5006503;28;20067;-85
2022/11/22 10:20:38;;;;;;;6.20;1.73;;;;;;;9.08;nan;98848.81;5007411;28;19925;-84
2022/11/22 10:23:13;;;;;;;6.07;1.70;;;;;;;9.02;nan;98849.56;5011056;28;20040;-85
2022/11/22 10:25:44;;;;;;;4.35;1.50;;;;;;;9.01;nan;98847.94;5001720;28;20056;-84
2022/11/22 10:28:19;;;;;;;6.30;1.83;;;;;;;9.00;nan;98848.91;5005339;28;20044;-84
2022/11/22 10:30:56;;;;;;;4.28;1.63;;;;;;;8.93;nan;98850.63;5004139;28;20041;-84
2022/11/22 10:33:26;;;;;;;4.55;1.73;;;;;;;8.91;nan;98853.47;5008407;28;20072;-86
2022/11/22 10:36:00;;;;;;;4.07;1.53;;;;;;;8.89;nan;98854.63;5009864;28;20564;-84
2022/11/22 10:38:36;;;;;;;6.20;2.10;;;;;;;8.96;nan;98858.19;5028546;28;20297;-85
2022/11/22 10:41:33;;;;;;;6.47;1.50;;;;;;;8.97;nan;98861.66;5020014;28;20046;-86
2022/11/22 10:44:16;;;;;;;4.10;1.60;;;;;;;8.90;nan;98857.09;5016247;28;20038;-85
2022/11/22 10:46:49;;;;;;;8.00;1.98;;;;;;;8.92;nan;98852.47;5012219;28;20034;-85
2022/11/22 10:49:18;;;;;;;6.13;1.67;;;;;;;8.91;nan;98855.28;5001423;28;20030;-86
2022/11/22 10:51:55;;;;;;;6.15;1.67;;;;;;;8.92;nan;98854.28;5000617;28;20042;-85
2022/11/22 10:54:41;;;;;;;8.18;1.92;;;;;;;8.93;nan;98861.19;5001547;28;20323;-85
2022/11/22 10:57:19;;;;;;;7.30;1.80;;;;;;;8.98;nan;98856.19;5021113;28;20450;-86
2022/11/22 11:00:14;;;;;;;7.00;1.58;;;;;;;9.00;nan;98854.19;5021718;28;20034;-85
2022/11/22 11:02:45;;;;;;;6.78;2.00;;;;;;;9.03;nan;98850.34;5004808;28;20045;-85
2022/11/22 11:05:16;;;;;;;8.93;1.80;;;;;;;9.09;nan;98850.44;4998758;28;20121;-85
2022/11/22 11:07:46;;;;;;;5.18;1.60;;;;;;;9.12;nan;98847.44;5006190;28;20042;-86
2022/11/22 11:10:22;;;;;;;6.13;1.63;;;;;;;9.17;nan;98849.53;4999956;28;20535;-86
2022/11/22 11:12:53;;;;;;;9.18;1.88;;;;;;;9.18;nan;98848.53;5015046;28;20040;-84
2022/11/22 11:15:23;;;;;;;8.60;1.77;;;;;;;9.13;nan;98840.38;5017421;28;20084;-85
2022/11/22 11:17:57;;;;;;;7.30;1.53;;;;;;;9.12;nan;98841.34;5013462;28;20091;-85
2022/11/22 11:20:31;;;;;;;6.50;1.63;;;;;;;9.17;nan;98841.63;5012276;28;20056;-84
2022/11/22 11:22:56;;;;;;;6.50;1.60;;;;;;;9.25;nan;98836.25;5006220;28;20260;-84
2022/11/22 11:25:42;;;;;;;4.60;1.48;;;;;;;9.30;nan;98830.44;5022448;28;20045;-84
2022/11/22 11:28:10;;;;;;;5.70;1.75;;;;;;;9.38;nan;98834.78;5006247;28;20061;-85
2022/11/22 11:30:43;;;;;;;7.10;1.70;;;;;;;9.30;nan;98831.25;5006636;28;20407;-85
2022/11/22 11:33:20;;;;;;;6.80;1.90;;;;;;;9.28;nan;98825.31;5016067;28;20094;-84
2022/11/22 11:35:46;;;;;;;4.90;1.60;;;;;;;9.30;nan;98825.97;5020751;28;20129;-85
2022/11/22 11:38:47;;;;;;;6.40;1.70;;;;;;;9.33;nan;98830.06;5014293;28;20120;-85
2022/11/22 11:41:33;;;;;;;6.85;2.00;;;;;;;9.29;nan;98828.78;5012762;28;20047;-84
2022/11/22 11:44:04;;;;;;;5.93;1.70;;;;;;;9.29;nan;98820.88;5015794;28;20080;-85
2022/11/22 11:46:38;;;;;;;6.35;1.90;;;;;;;9.33;nan;98820.31;5005921;28;20152;-85
2022/11/22 11:49:19;;;;;;;5.95;1.90;;;;;;;9.44;nan;98823.47;5010789;28;20032;-85
2022/11/22 11:51:51;;;;;;;5.55;1.50;;;;;;;9.29;nan;98818.22;5033433;28;20426;-84
2022/11/22 11:54:24;;;;;;;8.45;1.70;;;;;;;9.27;nan;98820.22;5009713;28;20037;-84
2022/11/22 11:56:49;;;;;;;4.85;1.40;;;;;;;9.34;nan;98819.31;5019486;28;20029;-85
2022/11/22 11:59:18;;;;;;;3.63;1.52;;;;;;;9.35;nan;98812.22;5027273;28;20068;-84
2022/11/22 12:02:15;;;;;;;6.30;1.67;;;;;;;9.32;nan;98821.31;5011972;28;20043;-86
2022/11/22 12:04:55;;;;;;;5.93;1.50;;;;;;;9.31;nan;98809.13;5008922;28;20157;-84
2022/11/22 12:07:26;;;;;;;7.15;1.42;;;;;;;9.34;nan;98806.13;5010609;28;20045;-85
2022/11/22 12:09:54;;;;;;;7.30;1.55;;;;;;;9.38;nan;98814.47;4989207;28;20037;-85
2022/11/22 12:12:25;;;;;;;6.90;1.70;;;;;;;9.35;nan;98807.75;5016117;28;20047;-85
2022/11/22 12:15:05;;;;;;;3.65;1.40;;;;;;;9.35;nan;98799.84;5012401;28;20038;-85
2022/11/22 12:17:35;;;;;;;6.55;1.65;;;;;;;9.35;nan;98799.84;5023327;28;20222;-85